X  CloseMetar Aviation Weather Data     ESNU Umeå

Temperature

-2°C Temperature

-3°C Dewpoint

93% Humidity



Wind

10 KM/H

 6 MPH

 3 M/S

 5 KTS



280°
Due West
Current Conditions

Clear Clear
Pressure 1011.92 (hPa) - 29.88 (in)
Visibility 6.2 (mi) - 10 (km)
Airport
Airport-code ESNU

Location Umeå 14 (km)

Metar:
ESNU 142050Z 28005KT CAVOK M02/M03 Q1012 R14/19//70

Time: 2019-11-14 21:50